Taurus — 2CPB4 — position and weather

sailwx.info

Track history (hours):
 
Tides and Currents Weather Stations Pressure Air Temp Water Temp Dewpoint Dewpoint Depression Visibility Wind Speed Wind Dir Waves Ship Positions

Taurus

Last reported at 2015-Aug-05 00:30 UTC. Time now 2015-Aug-05 08:25 UTC.
Position N 03°04' E 100°44'.

Length 292 m; draft 11.6 m.

Type: Cargo ship. MMSI: 235074621.

Date/timePositionNaut miles runAvg speedWind from/ knotsBaromVisibWave heightAir tempDewpointWater temp
2015-Aug-05 00:30N 03°04' E 100°44'1112.0
2015-Aug-04 23:33N 02°57' E 100°53'2311.6
2015-Aug-04 21:34N 02°44' E 101°12'2412.0
2015-Aug-04 19:33N 02°32' E 101°33'2512.5
2015-Aug-04 17:33N 02°17' E 101°53'13011.8
2015-Aug-04 06:33N 01°09' E 103°43'1111.2
2015-Aug-04 05:34N 01°13' E 103°53'1111.3
2015-Aug-04 04:33N 01°17' E 104°04'2 0.5
2015-Aug-04 01:28N 01°18' E 104°05'0 0.1
2015-Aug-04 00:31N 01°18' E 104°05'0 0.0
2015-Aug-03 20:16N 01°18' E 104°05'0 0.0
2015-Aug-03 19:28N 01°18' E 104°05'0 0.0
2015-Aug-03 13:10N 01°18' E 104°05'0 0.1
2015-Aug-03 12:27N 01°18' E 104°05'1 0.4
2015-Aug-03 10:33N 01°18' E 104°06'4 4.2
2015-Aug-03 09:33N 01°16' E 104°02'6 5.6
2015-Aug-03 08:33N 01°17' E 104°07'6 5.7
2015-Aug-03 07:31N 01°18' E 104°13'  
2015-Jul-27 14:33N 22°37' E 119°45'9 9.2
2015-Jul-27 13:33N 22°45' E 119°50'9 9.3
2015-Jul-27 12:33N 22°54' E 119°51'  
Track history (hours):
 
Tides and Currents Weather Stations Pressure Air Temp Water Temp Dewpoint Dewpoint Depression Visibility Wind Speed Wind Dir Waves Ship Positions

Taurus

Last reported at 2015-Aug-05 00:30 UTC. Time now 2015-Aug-05 08:25 UTC.
Position N 03°04' E 100°44'.

Length 292 m; draft 11.6 m.

Type: Cargo ship. MMSI: 235074621.

Date/timePositionNaut miles runAvg speedWind from/ knotsBaromVisibWave heightAir tempDewpointWater temp
2015-Aug-05 00:30N 03°04' E 100°44'1112.0
2015-Aug-04 23:33N 02°57' E 100°53'2311.6
2015-Aug-04 21:34N 02°44' E 101°12'2412.0
2015-Aug-04 19:33N 02°32' E 101°33'2512.5
2015-Aug-04 17:33N 02°17' E 101°53'13011.8
2015-Aug-04 06:33N 01°09' E 103°43'1111.2
2015-Aug-04 05:34N 01°13' E 103°53'1111.3
2015-Aug-04 04:33N 01°17' E 104°04'2 0.5
2015-Aug-04 01:28N 01°18' E 104°05'0 0.1
2015-Aug-04 00:31N 01°18' E 104°05'0 0.0
2015-Aug-03 20:16N 01°18' E 104°05'0 0.0
2015-Aug-03 19:28N 01°18' E 104°05'0 0.0
2015-Aug-03 13:10N 01°18' E 104°05'0 0.1
2015-Aug-03 12:27N 01°18' E 104°05'1 0.4
2015-Aug-03 10:33N 01°18' E 104°06'4 4.2
2015-Aug-03 09:33N 01°16' E 104°02'6 5.6
2015-Aug-03 08:33N 01°17' E 104°07'6 5.7
2015-Aug-03 07:31N 01°18' E 104°13'  
2015-Jul-27 14:33N 22°37' E 119°45'9 9.2
2015-Jul-27 13:33N 22°45' E 119°50'9 9.3
2015-Jul-27 12:33N 22°54' E 119°51'  

Dump ship's entire track history